Terminal Aerodrome Forecast
Issued by NWS Wilmington, OH

Current Version | Previous Version | Graphics & Text | Print | Product List | Glossary Off
Versions: 1 2 3 4 5 6 7 8 9 10 11 12 13 14 15 16 17

908
FTUS41 KILN 280537
TAFCMH
TAF
KCMH 280537Z 2806/0106 VRB03KT P6SM BKN150
     FM281400 16008KT P6SM VCSH OVC090
     FM281600 18009KT P6SM -SHRA OVC012
     FM282100 19014KT 6SM -SHRA VCTS SCT008 OVC012CB
     FM282300 19014KT P6SM OVC012
     FM010500 20014G22KT 5SM SHRA VCTS OVC012CB=

USA.gov is the U.S. government's official web portal to all federal, state and local government web resources and services.